Time;durP1;ratioP1;P1;durP2;ratioP2;P2;SDS_P1;SDS_P2;PMS_P1;PMS_P2;Temp;Humidity;BMP_temperature;BMP_pressure;BME280_temperature;BME280_humidity;BME280_pressure;Samples;Min_cycle;Max_cycle;Signal;HPM_P1;HPM_P2
2022/05/28 00:00:14;;;;;;;4.97;1.67;;;13.70;55.50;;;;;;948836;148;27319;-75
2022/05/28 00:02:41;;;;;;;3.60;1.77;;;13.70;55.60;;;;;;948221;150;27271;-75
2022/05/28 00:05:07;;;;;;;4.47;1.70;;;13.60;55.60;;;;;;949328;150;27298;-76
2022/05/28 00:07:34;;;;;;;3.83;1.87;;;13.60;55.60;;;;;;948440;151;27343;-76
2022/05/28 00:10:01;;;;;;;9.97;1.90;;;13.60;55.60;;;;;;948533;150;28282;-76
2022/05/28 00:12:31;;;;;;;4.07;1.70;;;13.60;55.80;;;;;;948683;148;27292;-76
2022/05/28 00:14:54;;;;;;;6.40;2.50;;;13.60;55.80;;;;;;947616;150;27397;-76
2022/05/28 00:17:20;;;;;;;4.37;1.67;;;13.50;55.70;;;;;;948723;150;27368;-76
2022/05/28 00:19:47;;;;;;;4.47;1.87;;;13.50;55.80;;;;;;948346;150;27346;-75
2022/05/28 00:22:14;;;;;;;5.97;2.23;;;13.50;55.80;;;;;;948690;150;27415;-76
2022/05/28 00:24:40;;;;;;;3.37;1.70;;;13.50;55.80;;;;;;948433;150;27321;-76
2022/05/28 00:27:07;;;;;;;5.63;1.80;;;13.50;55.80;;;;;;948196;150;27406;-75
2022/05/28 00:29:34;;;;;;;4.70;1.63;;;13.50;55.80;;;;;;949007;150;27310;-75
2022/05/28 00:32:00;;;;;;;2.43;1.23;;;13.50;55.80;;;;;;949080;148;27408;-76
2022/05/28 00:34:27;;;;;;;4.20;2.03;;;13.50;55.90;;;;;;948539;151;27425;-76
2022/05/28 00:36:53;;;;;;;3.03;1.60;;;13.50;55.80;;;;;;948933;151;27369;-76
2022/05/28 00:39:20;;;;;;;3.07;1.40;;;13.50;55.80;;;;;;948730;148;27384;-76
2022/05/28 00:41:46;;;;;;;3.73;1.40;;;13.50;55.90;;;;;;948321;150;27307;-76
2022/05/28 00:44:13;;;;;;;1.50;1.07;;;13.40;55.90;;;;;;948698;151;27345;-75
2022/05/28 00:46:39;;;;;;;2.13;1.20;;;13.40;55.90;;;;;;949004;150;27339;-76
2022/05/28 00:49:06;;;;;;;2.93;1.40;;;13.40;56.00;;;;;;948874;150;27295;-76
2022/05/28 00:51:33;;;;;;;3.97;1.30;;;13.30;56.00;;;;;;948209;150;27444;-75
2022/05/28 00:53:59;;;;;;;1.97;1.23;;;13.30;56.00;;;;;;946595;150;27406;-75
2022/05/28 00:56:27;;;;;;;3.00;1.30;;;13.30;56.00;;;;;;948335;148;27413;-76
2022/05/28 00:58:52;;;;;;;3.47;1.30;;;13.20;56.00;;;;;;949114;150;27338;-76
2022/05/28 01:01:22;;;;;;;3.23;1.10;;;13.20;56.60;;;;;;948737;151;27341;-76
2022/05/28 01:04:14;;;;;;;3.53;1.40;;;13.20;56.10;;;;;;948297;151;27404;-76
2022/05/28 01:07:00;;;;;;;4.43;1.60;;;13.20;56.20;;;;;;947702;150;27392;-75
2022/05/28 01:09:44;;;;;;;4.77;1.30;;;13.10;56.10;;;;;;948791;150;27339;-76
2022/05/28 01:12:17;;;;;;;2.90;1.20;;;13.10;56.20;;;;;;948332;150;27416;-75
2022/05/28 01:14:58;;;;;;;3.97;1.57;;;13.10;56.30;;;;;;948189;150;27384;-75
2022/05/28 01:17:25;;;;;;;4.73;1.40;;;13.00;56.30;;;;;;947805;150;27327;-75
2022/05/28 01:19:57;;;;;;;2.90;1.60;;;13.00;56.40;;;;;;948479;150;27261;-75
2022/05/28 01:22:42;;;;;;;2.40;1.40;;;13.00;56.50;;;;;;938746;150;27347;-75
2022/05/28 01:25:27;;;;;;;2.63;1.30;;;13.00;56.50;;;;;;948151;150;27428;-75
2022/05/28 01:28:09;;;;;;;5.10;1.77;;;12.90;56.40;;;;;;960809;146;27343;-75
2022/05/28 01:30:36;;;;;;;2.90;1.53;;;12.90;56.50;;;;;;941059;149;27933;-77
2022/05/28 01:33:02;;;;;;;2.30;1.30;;;12.90;56.50;;;;;;943500;149;27369;-76
2022/05/28 01:35:29;;;;;;;2.53;1.23;;;12.90;56.60;;;;;;947943;149;27424;-76
2022/05/28 01:37:55;;;;;;;8.17;1.70;;;12.90;56.60;;;;;;951263;149;27323;-76
2022/05/28 01:40:22;;;;;;;3.63;1.63;;;12.90;56.70;;;;;;951448;150;27347;-76
2022/05/28 01:42:48;;;;;;;2.90;1.27;;;12.90;56.70;;;;;;951597;150;27341;-76
2022/05/28 01:45:15;;;;;;;3.07;1.50;;;12.90;56.70;;;;;;951710;149;27295;-76
2022/05/28 01:47:43;;;;;;;2.83;1.10;;;12.90;56.70;;;;;;951145;150;27423;-76
2022/05/28 01:50:08;;;;;;;2.80;1.20;;;12.90;56.80;;;;;;951512;149;27247;-76
2022/05/28 01:52:35;;;;;;;9.87;1.90;;;12.90;56.70;;;;;;951430;150;27491;-77
2022/05/28 01:55:01;;;;;;;2.43;1.43;;;12.90;56.70;;;;;;952047;148;27357;-76
2022/05/28 01:57:28;;;;;;;3.23;1.27;;;12.90;56.70;;;;;;951934;148;27423;-76
2022/05/28 01:59:55;;;;;;;6.93;1.80;;;12.90;56.80;;;;;;951279;149;27306;-76
2022/05/28 02:02:21;;;;;;;1.93;1.20;;;12.90;56.70;;;;;;951571;149;27368;-76
2022/05/28 02:04:48;;;;;;;4.10;1.50;;;12.80;56.60;;;;;;951648;149;27371;-76
2022/05/28 02:07:14;;;;;;;4.27;1.33;;;12.80;56.70;;;;;;951334;150;27347;-76
2022/05/28 02:09:41;;;;;;;4.70;1.60;;;12.80;56.80;;;;;;951637;150;27243;-76
2022/05/28 02:12:16;;;;;;;3.80;1.60;;;12.70;56.90;;;;;;950555;149;27310;-76
2022/05/28 02:14:52;;;;;;;3.53;1.43;;;12.70;57.00;;;;;;951657;150;27244;-76
2022/05/28 02:17:27;;;;;;;4.60;1.60;;;12.60;57.00;;;;;;960566;146;27358;-76
2022/05/28 02:20:15;;;;;;;3.40;1.37;;;12.60;57.00;;;;;;951105;149;27458;-75
2022/05/28 02:22:50;;;;;;;4.10;1.67;;;12.50;57.20;;;;;;947870;150;27374;-76
2022/05/28 02:25:17;;;;;;;3.13;1.90;;;12.40;57.30;;;;;;947327;150;27323;-76
2022/05/28 02:27:43;;;;;;;3.87;1.67;;;12.30;57.40;;;;;;948093;150;27319;-75
2022/05/28 02:30:10;;;;;;;2.93;1.17;;;12.10;57.60;;;;;;948498;151;27436;-75
2022/05/28 02:32:37;;;;;;;5.43;1.60;;;12.00;57.80;;;;;;961544;146;27451;-75
2022/05/28 02:35:03;;;;;;;4.17;1.57;;;11.90;57.90;;;;;;949374;151;27327;-75
2022/05/28 02:37:30;;;;;;;3.60;1.67;;;11.90;58.20;;;;;;961370;146;27368;-75
2022/05/28 02:39:57;;;;;;;2.60;1.27;;;11.70;57.80;;;;;;953987;149;27380;-75
2022/05/28 02:42:23;;;;;;;4.63;1.80;;;11.60;58.40;;;;;;948573;149;27334;-75
2022/05/28 02:44:50;;;;;;;3.23;1.50;;;11.50;58.60;;;;;;943937;149;27470;-75
2022/05/28 02:47:16;;;;;;;3.67;1.67;;;11.40;58.70;;;;;;941395;149;27286;-75
2022/05/28 02:49:43;;;;;;;6.23;1.97;;;11.30;58.90;;;;;;945920;149;27325;-75
2022/05/28 02:52:09;;;;;;;2.33;1.30;;;11.20;59.10;;;;;;961830;146;27447;-76
2022/05/28 02:54:36;;;;;;;9.63;1.90;;;11.10;59.30;;;;;;943810;149;27348;-75
2022/05/28 02:57:03;;;;;;;3.03;1.80;;;11.00;59.40;;;;;;945201;149;27372;-75
2022/05/28 02:59:29;;;;;;;4.10;1.13;;;10.90;59.60;;;;;;933508;150;28980;-75
2022/05/28 03:01:56;;;;;;;4.33;1.50;;;10.80;59.70;;;;;;925311;152;27344;-75
2022/05/28 03:04:22;;;;;;;2.33;1.33;;;10.80;59.80;;;;;;914351;154;27294;-75
2022/05/28 03:06:49;;;;;;;3.53;1.40;;;10.70;60.00;;;;;;924188;153;27404;-75
2022/05/28 03:09:15;;;;;;;4.87;1.70;;;10.60;60.20;;;;;;931641;151;27381;-75
2022/05/28 03:11:42;;;;;;;2.63;1.70;;;10.50;60.40;;;;;;932379;151;27395;-75
2022/05/28 03:14:09;;;;;;;3.73;1.60;;;10.40;60.60;;;;;;932302;151;27322;-75
2022/05/28 03:16:35;;;;;;;3.67;1.60;;;10.40;60.90;;;;;;931187;151;27469;-75
2022/05/28 03:19:02;;;;;;;2.60;1.40;;;10.30;61.00;;;;;;931933;151;27343;-75
2022/05/28 03:21:28;;;;;;;3.50;1.23;;;10.30;61.30;;;;;;931485;151;27403;-75
2022/05/28 03:23:55;;;;;;;3.80;1.80;;;10.20;61.50;;;;;;931003;151;27385;-75
2022/05/28 03:26:22;;;;;;;2.53;1.43;;;10.20;61.70;;;;;;931718;151;28591;-75
2022/05/28 03:28:49;;;;;;;4.10;1.53;;;10.20;62.00;;;;;;931514;151;27323;-75
2022/05/28 03:31:15;;;;;;;2.60;1.40;;;10.10;62.10;;;;;;914879;153;27284;-75
2022/05/28 03:33:41;;;;;;;3.43;1.57;;;10.10;62.30;;;;;;922938;153;27323;-75
2022/05/28 03:36:08;;;;;;;2.50;1.37;;;10.10;62.50;;;;;;932328;151;27389;-75
2022/05/28 03:38:35;;;;;;;2.43;1.60;;;10.10;62.60;;;;;;931204;150;27361;-76
2022/05/28 03:41:01;;;;;;;3.53;1.70;;;10.10;62.90;;;;;;932694;150;27407;-75
2022/05/28 03:43:28;;;;;;;3.63;1.33;;;10.10;63.10;;;;;;915530;153;27352;-75
2022/05/28 03:45:54;;;;;;;5.63;1.30;;;10.10;63.40;;;;;;921629;152;27325;-75
2022/05/28 03:48:21;;;;;;;4.73;1.83;;;10.10;63.50;;;;;;922809;153;27870;-75
2022/05/28 03:50:47;;;;;;;2.40;1.43;;;10.10;63.70;;;;;;917006;152;27758;-75
2022/05/28 03:53:15;;;;;;;3.03;1.50;;;10.10;63.70;;;;;;932196;150;27774;-75
2022/05/28 03:55:41;;;;;;;2.10;1.33;;;10.20;63.70;;;;;;931311;150;27285;-75
2022/05/28 03:58:07;;;;;;;3.60;1.53;;;10.20;63.80;;;;;;923290;148;27355;-75
2022/05/28 04:00:34;;;;;;;4.10;1.53;;;10.30;63.90;;;;;;935301;150;27291;-76
2022/05/28 04:03:00;;;;;;;2.07;1.40;;;10.40;64.00;;;;;;935040;150;27440;-75
2022/05/28 04:05:27;;;;;;;4.23;1.40;;;10.40;64.10;;;;;;942309;149;28326;-75
2022/05/28 04:07:54;;;;;;;2.43;1.47;;;10.50;64.20;;;;;;941445;149;27776;-75
2022/05/28 04:10:20;;;;;;;4.17;1.50;;;10.50;64.00;;;;;;942747;149;27267;-75
2022/05/28 04:12:47;;;;;;;5.03;1.60;;;10.60;64.10;;;;;;942401;149;27842;-75
2022/05/28 04:15:13;;;;;;;3.03;1.73;;;10.60;64.00;;;;;;942560;149;27867;-75
2022/05/28 04:17:40;;;;;;;2.97;1.40;;;10.70;64.20;;;;;;942511;149;27358;-75
2022/05/28 04:20:07;;;;;;;2.87;1.50;;;10.70;64.00;;;;;;942898;149;27363;-75
2022/05/28 04:22:33;;;;;;;3.50;1.57;;;10.80;64.10;;;;;;942424;149;27318;-75
2022/05/28 04:25:00;;;;;;;3.87;1.70;;;10.80;64.00;;;;;;942427;149;27398;-75
2022/05/28 04:27:26;;;;;;;4.17;1.63;;;10.90;64.00;;;;;;941893;149;27341;-75
2022/05/28 04:29:53;;;;;;;4.30;1.50;;;10.90;64.10;;;;;;942685;149;27357;-75
2022/05/28 04:32:19;;;;;;;3.40;2.23;;;11.00;64.20;;;;;;942515;149;27391;-75
2022/05/28 04:34:46;;;;;;;2.83;1.20;;;11.00;64.20;;;;;;941778;149;27353;-75
2022/05/28 04:37:13;;;;;;;2.97;1.77;;;11.10;64.20;;;;;;941427;149;27356;-75
2022/05/28 04:39:39;;;;;;;3.20;1.33;;;11.20;64.40;;;;;;942485;149;27447;-75
2022/05/28 04:42:06;;;;;;;2.43;1.30;;;11.20;64.30;;;;;;942507;149;27472;-75
2022/05/28 04:44:32;;;;;;;4.20;1.53;;;11.40;64.40;;;;;;943237;149;27334;-75
2022/05/28 04:46:59;;;;;;;4.27;1.53;;;11.50;64.40;;;;;;941987;149;27391;-75
2022/05/28 04:49:26;;;;;;;3.73;1.83;;;11.60;64.40;;;;;;942517;149;27318;-75
2022/05/28 04:51:52;;;;;;;6.10;1.33;;;11.70;64.40;;;;;;942345;149;27352;-75
2022/05/28 04:54:19;;;;;;;1.30;1.20;;;11.80;64.30;;;;;;942588;149;27488;-75
2022/05/28 04:56:46;;;;;;;4.10;1.50;;;11.90;64.20;;;;;;942674;149;27451;-75
2022/05/28 04:59:12;;;;;;;4.40;1.70;;;12.10;64.30;;;;;;940518;149;27454;-75
2022/05/28 05:01:39;;;;;;;4.63;1.47;;;12.20;64.50;;;;;;930127;151;27414;-75
2022/05/28 05:04:05;;;;;;;2.13;1.20;;;12.40;64.30;;;;;;929204;152;27376;-75
2022/05/28 05:06:32;;;;;;;5.60;1.87;;;12.50;64.00;;;;;;928452;154;27366;-75
2022/05/28 05:08:58;;;;;;;2.87;1.37;;;12.70;63.90;;;;;;945450;151;27341;-76
2022/05/28 05:11:25;;;;;;;2.23;1.40;;;12.80;63.50;;;;;;930825;151;27440;-75
2022/05/28 05:13:51;;;;;;;2.47;1.37;;;12.90;63.40;;;;;;929440;152;27455;-75
2022/05/28 05:16:18;;;;;;;2.30;1.60;;;13.10;63.40;;;;;;930845;154;27396;-75
2022/05/28 05:18:45;;;;;;;3.57;1.27;;;13.20;63.20;;;;;;930599;152;27322;-75
2022/05/28 05:21:12;;;;;;;2.83;1.30;;;13.30;63.10;;;;;;928785;153;27528;-75
2022/05/28 05:23:40;;;;;;;2.73;1.53;;;13.30;62.80;;;;;;929795;151;27367;-75
2022/05/28 05:26:10;;;;;;;4.63;1.60;;;13.40;62.60;;;;;;929006;151;27322;-75
2022/05/28 05:28:37;;;;;;;3.93;1.37;;;13.60;63.00;;;;;;930216;153;27293;-75
2022/05/28 05:31:03;;;;;;;1.37;1.20;;;13.70;64.10;;;;;;928331;153;27383;-75
2022/05/28 05:33:30;;;;;;;4.53;1.57;;;14.10;65.80;;;;;;928981;154;27475;-76
2022/05/28 05:35:56;;;;;;;2.90;1.50;;;14.70;66.90;;;;;;928677;154;27285;-75
2022/05/28 05:38:23;;;;;;;3.70;1.45;;;15.40;67.70;;;;;;930495;151;27488;-76
2022/05/28 05:40:49;;;;;;;4.15;1.30;;;16.40;67.80;;;;;;930539;154;27334;-76
2022/05/28 05:43:16;;;;;;;4.15;1.40;;;17.40;67.20;;;;;;945769;151;27322;-75
2022/05/28 05:45:43;;;;;;;1.25;0.82;;;18.50;65.90;;;;;;930993;154;27456;-76
2022/05/28 05:48:09;;;;;;;3.52;1.20;;;19.60;64.60;;;;;;930711;154;27331;-75
2022/05/28 05:50:36;;;;;;;1.25;1.15;;;20.60;62.70;;;;;;930712;154;27337;-76
2022/05/28 05:53:02;;;;;;;2.65;1.20;;;21.60;61.00;;;;;;928835;154;27432;-76
2022/05/28 05:55:29;;;;;;;2.67;1.52;;;22.60;59.70;;;;;;935608;151;27366;-76
2022/05/28 05:57:56;;;;;;;2.22;1.57;;;23.60;58.50;;;;;;930696;154;27350;-77
2022/05/28 06:00:22;;;;;;;2.62;1.10;;;24.50;57.10;;;;;;929877;151;27430;-77
2022/05/28 06:02:49;;;;;;;2.17;1.30;;;25.40;55.20;;;;;;930071;154;27298;-77
2022/05/28 06:05:15;;;;;;;2.17;1.42;;;26.30;54.00;;;;;;930730;152;27270;-77
2022/05/28 06:07:42;;;;;;;2.02;1.40;;;27.00;52.50;;;;;;945434;149;27322;-77
2022/05/28 06:10:09;;;;;;;3.55;1.15;;;27.60;51.30;;;;;;935395;151;27415;-76
2022/05/28 06:12:35;;;;;;;2.83;1.50;;;28.20;50.40;;;;;;930607;151;27377;-76
2022/05/28 06:15:02;;;;;;;1.27;0.95;;;28.60;49.50;;;;;;928999;154;27812;-77
2022/05/28 06:17:29;;;;;;;2.58;1.30;;;29.10;48.90;;;;;;929344;154;27450;-78
2022/05/28 06:19:55;;;;;;;3.60;1.70;;;29.60;47.70;;;;;;929059;152;27428;-76
2022/05/28 06:22:22;;;;;;;2.42;1.07;;;30.00;47.00;;;;;;930877;152;27409;-76
2022/05/28 06:24:48;;;;;;;3.05;1.35;;;30.40;46.00;;;;;;928384;151;27372;-76
2022/05/28 06:27:15;;;;;;;1.60;1.17;;;30.80;45.10;;;;;;945463;149;27349;-76
2022/05/28 06:29:41;;;;;;;1.80;1.12;;;31.10;44.30;;;;;;930035;154;27298;-76
2022/05/28 06:32:08;;;;;;;3.20;1.60;;;31.40;43.80;;;;;;936173;151;27296;-76
2022/05/28 06:34:35;;;;;;;1.62;1.10;;;31.70;43.40;;;;;;929643;154;27350;-76
2022/05/28 06:37:01;;;;;;;2.85;1.37;;;32.00;43.00;;;;;;929791;154;27343;-75
2022/05/28 06:39:28;;;;;;;3.27;1.40;;;32.20;42.70;;;;;;947001;151;27467;-76
2022/05/28 06:41:54;;;;;;;2.83;1.55;;;32.50;42.00;;;;;;928461;154;28443;-76
2022/05/28 06:44:21;;;;;;;2.85;1.22;;;32.70;41.20;;;;;;929392;151;27321;-76
2022/05/28 06:46:48;;;;;;;1.70;1.10;;;32.70;39.80;;;;;;935283;151;27319;-76
2022/05/28 06:49:14;;;;;;;3.47;1.52;;;32.60;39.50;;;;;;929604;153;27292;-76
2022/05/28 06:51:41;;;;;;;3.65;1.25;;;32.50;39.10;;;;;;928367;153;27424;-76
2022/05/28 06:54:07;;;;;;;2.15;1.35;;;32.30;38.90;;;;;;925449;155;27461;-76
2022/05/28 06:56:34;;;;;;;4.30;1.42;;;32.00;38.60;;;;;;929465;151;27405;-76
2022/05/28 06:59:01;;;;;;;3.27;1.90;;;31.60;38.20;;;;;;930034;154;27384;-75
2022/05/28 07:01:27;;;;;;;3.30;1.12;;;31.20;37.80;;;;;;928459;151;27336;-76
2022/05/28 07:03:54;;;;;;;3.95;1.57;;;30.70;37.60;;;;;;928401;154;27360;-75
2022/05/28 07:06:20;;;;;;;3.37;1.50;;;30.00;37.50;;;;;;929696;151;27464;-76
2022/05/28 07:08:47;;;;;;;3.25;1.62;;;29.30;37.60;;;;;;929718;154;27377;-76
2022/05/28 07:11:14;;;;;;;3.10;1.22;;;28.50;37.80;;;;;;934186;151;27449;-75
2022/05/28 07:13:40;;;;;;;2.00;1.37;;;27.80;38.10;;;;;;945102;151;27333;-75
2022/05/28 07:16:07;;;;;;;3.65;1.30;;;27.10;38.50;;;;;;935002;151;27308;-75
2022/05/28 07:18:33;;;;;;;2.87;1.50;;;26.40;39.10;;;;;;945282;151;27474;-75
2022/05/28 07:21:00;;;;;;;3.30;1.40;;;25.90;39.90;;;;;;945321;151;27426;-75
2022/05/28 07:23:26;;;;;;;2.05;1.07;;;25.50;41.20;;;;;;929052;152;27450;-75
2022/05/28 07:25:59;;;;;;;3.10;1.47;;;25.40;42.10;;;;;;928508;153;27318;-75
2022/05/28 07:28:27;;;;;;;5.50;2.22;;;25.30;42.10;;;;;;929024;152;27358;-75
2022/05/28 07:30:52;;;;;;;2.52;1.20;;;25.30;42.00;;;;;;928331;154;27424;-75
2022/05/28 07:33:19;;;;;;;1.65;0.98;;;25.30;41.90;;;;;;929061;151;27325;-75
2022/05/28 07:35:45;;;;;;;3.33;1.57;;;25.20;42.00;;;;;;930691;154;27330;-75
2022/05/28 07:38:12;;;;;;;3.12;1.20;;;25.20;42.50;;;;;;930201;152;27346;-75
2022/05/28 07:40:39;;;;;;;1.82;1.20;;;25.30;42.80;;;;;;929599;151;27405;-75
2022/05/28 07:43:05;;;;;;;3.08;1.30;;;25.40;42.60;;;;;;930773;152;27333;-75
2022/05/28 07:45:32;;;;;;;3.40;1.50;;;25.40;42.10;;;;;;929471;154;27375;-75
2022/05/28 07:47:58;;;;;;;2.05;1.15;;;25.40;41.70;;;;;;927109;153;28337;-75
2022/05/28 07:50:25;;;;;;;3.55;1.15;;;25.30;41.40;;;;;;928299;154;27309;-75
2022/05/28 07:52:52;;;;;;;2.62;1.25;;;25.20;41.30;;;;;;935367;151;27381;-76
2022/05/28 07:55:18;;;;;;;3.25;1.10;;;25.00;41.60;;;;;;935570;151;27291;-75
2022/05/28 07:57:45;;;;;;;2.12;1.27;;;24.90;41.90;;;;;;947255;151;27851;-75
2022/05/28 08:00:11;;;;;;;1.32;0.95;;;24.90;41.60;;;;;;947454;151;27336;-75
2022/05/28 08:02:38;;;;;;;1.67;1.02;;;24.80;41.40;;;;;;930495;151;27371;-75
2022/05/28 08:05:05;;;;;;;1.07;0.95;;;24.70;41.60;;;;;;930593;154;27323;-75
2022/05/28 08:07:31;;;;;;;2.83;1.20;;;24.50;41.80;;;;;;929730;152;27767;-75
2022/05/28 08:09:58;;;;;;;2.70;1.17;;;24.40;42.10;;;;;;927353;152;27874;-75
2022/05/28 08:12:24;;;;;;;3.80;1.30;;;24.40;42.40;;;;;;947184;151;27414;-76
2022/05/28 08:14:51;;;;;;;2.83;1.10;;;24.40;42.60;;;;;;930138;151;27377;-75
2022/05/28 08:17:18;;;;;;;2.80;1.55;;;24.40;42.20;;;;;;927938;154;27318;-75
2022/05/28 08:19:44;;;;;;;1.95;1.10;;;24.40;41.90;;;;;;935470;151;27324;-75
2022/05/28 08:24:55;;;;;;;1.57;1.12;;;24.40;42.50;;;;;;936099;151;27450;-75
2022/05/28 08:27:22;;;;;;;1.67;0.85;;;24.70;43.40;;;;;;929754;152;28521;-75
2022/05/28 08:29:49;;;;;;;1.70;0.95;;;25.00;44.00;;;;;;926455;155;27348;-75
2022/05/28 08:32:18;;;;;;;2.17;0.80;;;25.40;43.30;;;;;;945757;149;27297;-76
2022/05/28 08:34:42;;;;;;;1.90;1.00;;;25.80;42.80;;;;;;934883;151;27356;-75
2022/05/28 08:37:08;;;;;;;2.92;1.10;;;26.10;41.90;;;;;;945768;151;27345;-75
2022/05/28 08:39:35;;;;;;;2.27;0.95;;;26.30;40.90;;;;;;928604;154;27397;-75
2022/05/28 08:42:01;;;;;;;1.30;0.88;;;26.30;40.20;;;;;;928561;152;27319;-75
2022/05/28 08:44:28;;;;;;;2.10;0.98;;;26.10;39.30;;;;;;928391;154;27369;-75
2022/05/28 08:46:54;;;;;;;1.87;0.57;;;25.90;39.80;;;;;;935195;151;27399;-75
2022/05/28 08:49:24;;;;;;;1.05;0.45;;;25.80;40.00;;;;;;930928;153;27343;-75
2022/05/28 08:51:51;;;;;;;1.10;0.80;;;25.80;40.90;;;;;;930701;154;27518;-75
2022/05/28 08:54:20;;;;;;;0.85;0.82;;;26.00;41.70;;;;;;930608;152;27311;-75
2022/05/28 08:56:46;;;;;;;0.70;0.42;;;26.40;41.70;;;;;;945034;151;27293;-75
2022/05/28 08:59:19;;;;;;;1.57;1.10;;;26.90;41.60;;;;;;935759;151;27374;-75
2022/05/28 09:01:45;;;;;;;1.35;1.10;;;27.50;41.30;;;;;;943550;148;27353;-75
2022/05/28 09:04:17;;;;;;;3.35;1.12;;;28.20;41.40;;;;;;929221;151;27329;-75
2022/05/28 09:06:46;;;;;;;2.67;1.42;;;28.70;39.60;;;;;;945620;149;27343;-75
2022/05/28 09:09:11;;;;;;;1.95;0.75;;;29.10;38.90;;;;;;935503;151;27407;-75
2022/05/28 09:11:37;;;;;;;2.00;1.25;;;29.30;37.60;;;;;;945955;151;27447;-76
2022/05/28 09:14:13;;;;;;;1.35;1.00;;;29.40;37.10;;;;;;930467;153;27349;-76
2022/05/28 09:16:39;;;;;;;1.85;1.02;;;29.40;36.50;;;;;;930599;153;27403;-75
2022/05/28 09:19:15;;;;;;;2.10;1.42;;;29.40;36.40;;;;;;931256;152;27833;-75
2022/05/28 09:21:41;;;;;;;1.85;1.10;;;29.40;36.80;;;;;;930254;153;27500;-75
2022/05/28 09:24:08;;;;;;;1.35;1.05;;;29.60;37.60;;;;;;930265;154;27459;-76
2022/05/28 09:26:37;;;;;;;1.47;0.93;;;29.90;37.30;;;;;;927801;153;28070;-76
2022/05/28 09:29:22;;;;;;;2.00;1.00;;;30.20;37.10;;;;;;920979;154;27334;-76
2022/05/28 09:32:03;;;;;;;1.07;0.90;;;30.40;36.50;;;;;;934047;151;27869;-75
2022/05/28 09:35:07;;;;;;;1.55;0.80;;;30.80;36.50;;;;;;946415;151;27327;-75
2022/05/28 09:38:04;;;;;;;2.00;1.00;;;31.10;36.30;;;;;;902450;156;27856;-75
2022/05/28 09:40:43;;;;;;;1.92;1.00;;;31.30;36.00;;;;;;908736;157;27454;-75
2022/05/28 09:43:33;;;;;;;1.00;0.85;;;31.40;34.10;;;;;;927324;154;27405;-75
2022/05/28 09:46:00;;;;;;;2.10;0.90;;;31.20;34.00;;;;;;931597;151;27918;-75
2022/05/28 09:48:26;;;;;;;1.60;0.80;;;30.80;34.00;;;;;;943964;149;27826;-76
2022/05/28 09:50:53;;;;;;;1.02;0.82;;;30.40;33.80;;;;;;945527;151;27400;-75
2022/05/28 09:56:22;;;;;;;1.55;1.15;;;29.30;34.00;;;;;;930465;154;27495;-74
2022/05/28 09:58:49;;;;;;;1.35;0.80;;;28.80;34.30;;;;;;930080;154;27349;-75
2022/05/28 10:01:25;;;;;;;1.37;1.12;;;28.40;35.30;;;;;;930370;153;28471;-76
2022/05/28 10:06:36;;;;;;;1.90;0.90;;;28.10;36.50;;;;;;931868;154;27421;-75
2022/05/28 10:09:11;;;;;;;0.82;0.82;;;28.10;35.70;;;;;;937276;151;27843;-75
2022/05/28 10:11:38;;;;;;;1.10;0.95;;;28.20;35.60;;;;;;948856;151;27464;-75
2022/05/28 10:14:05;;;;;;;2.25;0.90;;;28.10;34.80;;;;;;929171;154;27290;-74
2022/05/28 10:16:37;;;;;;;1.85;0.82;;;28.00;34.30;;;;;;930066;154;27358;-75
2022/05/28 10:19:03;;;;;;;0.85;0.60;;;27.70;34.40;;;;;;941763;149;27331;-75
2022/05/28 10:21:33;;;;;;;2.20;0.90;;;27.30;34.80;;;;;;932030;151;27669;-75
2022/05/28 10:24:00;;;;;;;3.17;1.22;;;27.00;35.30;;;;;;945812;151;27436;-75
2022/05/28 10:26:36;;;;;;;1.87;0.95;;;26.70;36.10;;;;;;945602;151;27458;-75
2022/05/28 10:29:08;;;;;;;1.72;0.70;;;26.50;36.40;;;;;;931435;154;27324;-75
2022/05/28 10:31:37;;;;;;;2.58;1.12;;;26.50;36.50;;;;;;932151;152;27394;-75
2022/05/28 10:34:04;;;;;;;2.55;1.15;;;26.40;36.30;;;;;;943647;152;27367;-75
2022/05/28 10:36:30;;;;;;;1.17;0.80;;;26.30;36.30;;;;;;942646;152;27374;-75
2022/05/28 10:39:09;;;;;;;1.20;0.90;;;26.10;36.30;;;;;;948736;151;27334;-75
2022/05/28 10:41:35;;;;;;;1.75;1.02;;;26.00;36.30;;;;;;942346;151;27291;-75
2022/05/28 10:44:02;;;;;;;1.02;0.72;;;25.70;36.40;;;;;;949039;151;27345;-75
2022/05/28 10:46:37;;;;;;;1.65;1.15;;;25.50;36.60;;;;;;939491;151;27399;-75
2022/05/28 10:49:25;;;;;;;1.75;1.10;;;25.20;36.50;;;;;;948299;151;27425;-74
2022/05/28 10:52:10;;;;;;;3.62;1.17;;;25.00;36.50;;;;;;945516;151;27494;-74
2022/05/28 10:54:56;;;;;;;2.67;1.07;;;24.80;36.70;;;;;;948715;150;27438;-74
2022/05/28 10:57:43;;;;;;;1.20;0.70;;;24.60;37.10;;;;;;930537;151;27426;-75
2022/05/28 11:00:19;;;;;;;1.42;1.02;;;24.50;37.40;;;;;;944827;151;27766;-75
2022/05/28 11:02:54;;;;;;;1.17;0.90;;;24.40;38.00;;;;;;932390;151;27365;-75
2022/05/28 11:05:45;;;;;;;1.10;1.00;;;24.30;37.20;;;;;;917346;154;27458;-75
2022/05/28 11:08:23;;;;;;;1.20;1.12;;;24.30;36.60;;;;;;945719;151;27952;-75
2022/05/28 11:11:02;;;;;;;1.30;1.10;;;24.30;36.70;;;;;;931232;154;27463;-75
2022/05/28 11:13:29;;;;;;;1.82;1.00;;;24.20;36.70;;;;;;942571;151;27294;-74
2022/05/28 11:16:23;;;;;;;1.02;0.80;;;24.20;36.60;;;;;;948662;151;27343;-75
2022/05/28 11:19:01;;;;;;;0.78;0.78;;;24.10;36.50;;;;;;924321;150;27291;-74
2022/05/28 11:21:34;;;;;;;1.35;0.95;;;24.10;36.70;;;;;;944244;151;27344;-74
2022/05/28 11:24:06;;;;;;;1.67;0.80;;;24.10;36.80;;;;;;930788;154;27368;-75
2022/05/28 11:26:35;;;;;;;1.32;0.90;;;24.10;36.90;;;;;;939768;150;27330;-74
2022/05/28 11:29:08;;;;;;;1.00;1.00;;;24.10;37.00;;;;;;932621;151;27833;-74
2022/05/28 11:31:46;;;;;;;0.75;0.50;;;24.10;36.80;;;;;;929888;154;27319;-75
2022/05/28 11:34:19;;;;;;;2.72;1.00;;;24.10;36.20;;;;;;945347;151;27704;-75
2022/05/28 11:36:45;;;;;;;2.25;1.07;;;24.10;35.80;;;;;;943386;151;27411;-75
2022/05/28 11:39:20;;;;;;;1.10;1.00;;;24.20;36.20;;;;;;947955;150;27379;-74
2022/05/28 11:41:53;;;;;;;1.20;1.10;;;24.20;35.90;;;;;;942324;151;27371;-75
2022/05/28 11:44:37;;;;;;;1.27;1.00;;;24.30;36.00;;;;;;930148;153;27364;-75
2022/05/28 11:47:06;;;;;;;1.17;0.88;;;24.30;36.00;;;;;;938768;150;27331;-75
2022/05/28 11:52:45;;;;;;;1.72;0.82;;;24.40;36.00;;;;;;945221;151;27433;-75
2022/05/28 11:55:29;;;;;;;1.05;0.70;;;24.50;36.10;;;;;;944195;151;27333;-74
2022/05/28 11:58:01;;;;;;;0.65;0.57;;;24.50;36.20;;;;;;941436;152;27461;-75
2022/05/28 12:00:28;;;;;;;1.95;0.60;;;24.60;36.10;;;;;;945419;151;27391;-75
2022/05/28 12:03:16;;;;;;;1.02;0.70;;;24.70;36.20;;;;;;937600;151;27857;-75
2022/05/28 12:06:03;;;;;;;1.82;0.85;;;24.80;36.00;;;;;;943842;148;27490;-75
2022/05/28 12:08:45;;;;;;;1.05;0.80;;;24.90;35.90;;;;;;943734;148;27364;-74
2022/05/28 12:11:23;;;;;;;0.55;0.55;;;25.00;35.80;;;;;;934244;150;27460;-75
2022/05/28 12:13:52;;;;;;;1.30;0.57;;;25.10;35.60;;;;;;942539;148;27861;-75
2022/05/28 12:16:22;;;;;;;1.47;0.80;;;25.10;34.90;;;;;;938140;150;27312;-75
2022/05/28 12:19:01;;;;;;;2.05;0.78;;;25.10;34.50;;;;;;939110;150;27523;-75
2022/05/28 12:21:29;;;;;;;0.50;0.50;;;25.10;34.30;;;;;;944247;148;27310;-75
2022/05/28 12:24:14;;;;;;;0.85;0.80;;;25.00;34.10;;;;;;939076;150;27632;-75
2022/05/28 12:26:47;;;;;;;0.70;0.70;;;24.90;33.90;;;;;;938786;150;27343;-75
2022/05/28 12:29:35;;;;;;;1.55;1.45;;;24.80;33.80;;;;;;939603;150;27389;-75
2022/05/28 12:32:10;;;;;;;1.35;0.70;;;24.60;33.90;;;;;;939232;150;27436;-75
2022/05/28 12:34:37;;;;;;;1.17;0.80;;;24.50;33.90;;;;;;938757;150;27791;-75
2022/05/28 12:37:03;;;;;;;0.70;0.70;;;24.40;34.00;;;;;;939397;150;27394;-75
2022/05/28 12:39:38;;;;;;;1.10;0.60;;;24.30;34.00;;;;;;939310;150;27494;-75
2022/05/28 12:42:05;;;;;;;0.60;0.57;;;24.20;34.40;;;;;;938523;150;27382;-75
2022/05/28 12:44:31;;;;;;;1.27;0.53;;;24.20;34.30;;;;;;939720;150;27362;-75
2022/05/28 12:46:59;;;;;;;1.15;0.53;;;24.20;34.30;;;;;;938561;150;27327;-75
2022/05/28 12:49:33;;;;;;;1.80;0.75;;;24.20;34.40;;;;;;944552;148;27301;-75
2022/05/28 12:52:18;;;;;;;0.95;0.70;;;24.20;34.00;;;;;;934956;150;27471;-75
2022/05/28 12:54:45;;;;;;;0.72;0.60;;;24.20;34.10;;;;;;943277;149;27322;-75
2022/05/28 12:57:14;;;;;;;0.45;0.45;;;24.20;34.10;;;;;;942255;149;27775;-75
2022/05/28 12:59:41;;;;;;;1.05;0.68;;;24.20;33.80;;;;;;941171;149;27283;-75
2022/05/28 13:02:18;;;;;;;0.78;0.62;;;24.10;33.40;;;;;;942525;149;27454;-75
2022/05/28 13:04:52;;;;;;;0.65;0.60;;;24.10;33.40;;;;;;942472;149;27442;-75
2022/05/28 13:07:37;;;;;;;0.78;0.75;;;24.00;33.30;;;;;;920001;149;27384;-75
2022/05/28 13:10:04;;;;;;;0.95;0.90;;;23.80;33.10;;;;;;942206;149;27811;-74